Presque Isle, Michigan
Current Conditions -  °F | °C
As of 5:54 PM on Tuesday 21 Oct 2014 (Local Time) from KAPN Reporting Station
Clear Clear  
Wind Chill: 36°   Ceiling: Unl
Heat Index: 43°   Visibility: 10mi
Dew Point: 30°   Wind: 14mph
Humidity: 60%   Direction: 10°N
Pressure: 30.22"   Gusts: NA
Location:  45.3°N, 83.48°W
Report Text: KAPN 212154Z AUTO 01012KT 10SM CLR 06/M01 A3022 RMK AO2 SLP238 T00611011
Loading
Personal Weather Stations






























Interactive Weather Map
Tropical Storm Tracking
New forecast layout! Learn more

10-Day Weather Forecast

Advertisements
Track Severe Weather on mobile